LIEALFKB [pc12]

Details From LIEA - ALGHERO
To LFKB - Bastia Poretta
Flight Number pc12
Tags None
Created
Modified
Stats Distance 130 nm / 241 km
Max Altitude 12,000 ft / 3,658 m
Waypoints 6
Social Downloads 8
Likes 0
Share

Download

Looking for another format? Having issues loading an existing format? Contact us
Advertisement - Login to hide

Notes

None

Route

LIEA RIMUK S NV BTA58 LFKB

ID Type Via Altitude (ft/m) Position (lat/lon) Dist (leg/tot) Name
O LIEA APT - 87 / 27 40.63213 / 8.29077 - / 0 nm ALGHERO
RIMUK FIX - 12,000 / 3,658 40.96695 / 8.50583 22 / 22 nm
S FIX - 12,000 / 3,658 41.66195 / 8.72333 42 / 65 nm
NV FIX - 6,000 / 1,829 42.10972 / 9.11389 32 / 97 nm
BTA58 FIX - 3,000 / 914 42.48167 / 9.51509 28 / 125 nm
O LFKB APT - 25 / 8 42.55250 / 9.48371 4 / 130 nm Bastia Poretta

Altitude Profile

Advertisement - Login to hide

LIEA

Details ICAO LIEA (AHO)
Name Alghero-Fertilia "Riviera del Corallo"
Region Italy
Timezone Europe/Rome (UTC+1.0)
Stats Elevation 88 ft / 27 m (AMSL)
Location 40.632100° 8.290780°
Runways 1
Magnetic Variation 2.505° E

METAR

LIEA 011150Z 28010KT 250V310 9999 FEW030 16/09 Q1015

Decode

TAF

TAF LIEA 011100Z 0112/0212 28010KT 9999 SCT030 TEMPO 0115/0203 4000 RA

Decode

Departure Runways

ID Width Length Bearing (true/mag) Surface Threshold Overrun Markings Lighting
02 148 ft / 45 m 9,852 ft / 3,003 m 24.50° / 22.00° ASPHALT 0 ft / 0 m 0 ft / 0 m PREC-APP CENTERLINE EDGE THRESHOLD MALSF REIL-OMNI
20 148 ft / 45 m 9,852 ft / 3,003 m 204.51° / 202.01° ASPHALT 0 ft / 0 m 0 ft / 0 m PREC-APP CENTERLINE EDGE THRESHOLD MALSF REIL-OMNI

LFKB

Details ICAO LFKB (BIA)
Name Bastia Poretta
Region France
Timezone Europe/Paris (UTC+1.0)
Stats Elevation 24 ft / 7 m (AMSL)
Location 42.552600° 9.483750°
Runways 1
Magnetic Variation 2.805° E

METAR

LFKB 011200Z AUTO 08004KT 9999 FEW023 BKN120 BKN210 14/09 Q1011 NOSIG

Decode

TAF

TAF LFKB 010800Z 0109/0209 10006KT 9999 FEW040 BKN080 TX14/0112Z TN06/0204Z TEMPO 0114/0117 VRB05KT -RA SCT030 BKN045 TEMPO 0122/0203 27015G25KT TEMPO 0204/0207 4000 SHRA SCT030TCU BKN050

Decode

Destination Runways

ID Width Length Bearing (true/mag) Surface Threshold Overrun Markings Lighting
16 148 ft / 45 m 8,273 ft / 2,522 m 162.83° / 160.03° ASPHALT 0 ft / 0 m 102 ft / 31 m APP CENTERLINE EDGE THRESHOLD TDZ REIL-OMNI
34 148 ft / 45 m 8,273 ft / 2,522 m 342.84° / 340.03° ASPHALT 0 ft / 0 m 0 ft / 0 m PREC-APP CENTERLINE EDGE THRESHOLD TDZ REIL-OMNI

Approach Navaids

Runway Type Ident Frequency Range Bearing (true/mag) Slope Elevation
34 LOC-ILS BP 111.35 MHz 18 nm / 33 km 342.81° / 340.00 ° - 25 ft / 8 m (AMSL)
34 GS BP 111.35 MHz 10 nm / 19 km 343.62° / 340.81 ° 3.00° 25 ft / 8 m (AMSL)
34 DME BP 111.35 MHz 18 nm / 33 km - - 69 ft / 21 m (AMSL)

Popular Alternatives